Weather at Kirkwall Airport

Public forecast

Using degrees Celsius for public forecast. Weather courtesy of forecast.io.

Current aviation weather report (METAR) for Kirkwall Airport

Retrieved 2022/05/22 01:50 UTC (23 minutes ago):

EGPA 220150Z AUTO 17008KT 9999 BKN040/// 10/09 Q1008

Closest aviation forecast (TAF) to Kirkwall Airport

Closest forecast is RAF Lossiemouth, 76.4 nm (141.6 km) S. Retrieved 2022-05-22 03:00 UTC (0 seconds ago):

TAF TAF EGQS 220150Z 2203/2221 17005KT 9999 SCT040 BECMG 2206/2209 22015KT PROB30 TEMPO 2210/2212 7000 SHRA SCT024 TEMPO 2212/2221 5000 SHRA BKN020 BECMG 2215/2218 VRB03KT PROB30 TEMPO 2217/2221 4000 +SHRA SCT014 BKN018CB